This is the latest recevied weather packets stored in our database for station/object KD4EG. If no packets are shown the sender has not sent any weather packets the latest 10 day(s).
| Time | Temp. | Humidity | Pressure | Rain* | Wind** | Luminosity | Snow |
|---|---|---|---|---|---|---|---|
| 1777827356 | 13.89° C | 36% | 1020.9 hPa | 0 mm | - | 700 W/m² | - |
| 1777827052 | 13.89° C | 37% | 1021 hPa | 0 mm | - | 678 W/m² | - |
| 1777826750 | 13.89° C | 38% | 1021.1 hPa | 0 mm | - | 659 W/m² | - |
| 1777826446 | 13.33° C | 38% | 1021.1 hPa | 0 mm | - | 665 W/m² | - |
| 1777826143 | 13.33° C | 38% | 1021.3 hPa | 0 mm | - | 665 W/m² | - |
| 1777825841 | 12.78° C | 38% | 1021.2 hPa | 0 mm | - | 657 W/m² | - |
| 1777825538 | 13.33° C | 39% | 1021.2 hPa | 0 mm | - | 640 W/m² | - |
| 1777825236 | 13.33° C | 38% | 1021.2 hPa | 0 mm | - | 660 W/m² | - |
| 1777824932 | 12.78° C | 39% | 1021.3 hPa | 0 mm | - | 675 W/m² | - |
| 1777824628 | 12.78° C | 42% | 1021.3 hPa | 0 mm | - | 682 W/m² | - |
| 1777824326 | 12.78° C | 41% | 1021.5 hPa | 0 mm | - | 653 W/m² | - |
| 1777824021 | 12.78° C | 40% | 1021.5 hPa | 0 mm | - | 646 W/m² | - |
| 1777823718 | 12.78° C | 41% | 1021.4 hPa | 0 mm | - | 672 W/m² | - |
| 1777823415 | 12.22° C | 40% | 1021.6 hPa | 0 mm | - | 710 W/m² | - |
| 1777823112 | 11.67° C | 42% | 1021.6 hPa | 0 mm | - | 699 W/m² | - |
| 1777822810 | 11.67° C | 40% | 1021.9 hPa | 0 mm | - | 673 W/m² | - |
| 1777822508 | 11.67° C | 40% | 1021.8 hPa | 0 mm | - | 718 W/m² | - |
| 1777822205 | 11.67° C | 42% | 1021.7 hPa | 0 mm | - | 761 W/m² | - |
| 1777821902 | 11.67° C | 42% | 1021.7 hPa | 0 mm | - | 783 W/m² | - |
| 1777821600 | 11.11° C | 42% | 1021.6 hPa | 0 mm | - | 789 W/m² | - |
| 1777821298 | 11.11° C | 44% | 1021.9 hPa | 0 mm | - | 766 W/m² | - |
| 1777820994 | 11.11° C | 42% | 1022 hPa | 0 mm | - | 760 W/m² | - |
| 1777820691 | 10.56° C | 44% | 1022 hPa | 0 mm | - | 748 W/m² | - |
| 1777820387 | 10.56° C | 43% | 1022.2 hPa | 0 mm | - | 731 W/m² | - |
| 1777820085 | 10.56° C | 44% | 1022.2 hPa | 0 mm | - | 738 W/m² | - |
* Rain latest hour (hover to see other rain measurements)
** Current wind speed in m/s (hover to see current wind gust speed)